PS91 weather

Conemaugh Valley Memorial Hospital Heliport
Johnstown, Pennsylvania, United States

Public forecast

Using degrees Fahrenheit for public forecast. Weather courtesy of forecast.io.

Closest aviation weather report (METAR) to Conemaugh Valley Memorial Hospital Heliport

Closest report is John Murtha Johnstown Cambria County Airport, 4.0 nm (7.5 km) E. Retrieved 2019/10/23 07:54 UTC (51 minutes ago):

KJST 230754Z AUTO 27009KT 10SM FEW060 08/04 A2989 RMK AO2 SLP126 T00780039

Closest aviation forecast (TAF) to Conemaugh Valley Memorial Hospital Heliport

Closest forecast is John Murtha Johnstown Cambria County Airport, 4.0 nm (7.5 km) E. Retrieved 2019/10/23 06:54 UTC (2 hours ago):

TAF KJST 230551Z 2306/2406 27009KT P6SM BKN060 FM230900 25010KT 4SM BR BKN035 FM231300 26012G19KT P6SM SKC